[Skip to Content]
Hélimed
Site de réservation

R44 Porquerolles

Météo et prévisions du jour :

LFML 220200Z AUTO 29020KT CAVOK 17/07 Q1021 BECMG 32015G25KT

TAF LFML 220200Z 2203/2309 32015G25KT CAVOK 
      BECMG 2212/2214 33022G35KT TX21/2212Z TN14/2205Z

Le site de l'AUABLF, avec les dernières infos concernant le terrain, est ici.